sensor_id;sensor_type;location;lat;lon;timestamp;P1;durP1;ratioP1;P2;durP2;ratioP2
75785;SDS011;64402;44.708;37.644;2023-03-03T00:01:39;22.17;;;9.00;;
75785;SDS011;64402;44.708;37.644;2023-03-03T00:04:05;23.30;;;9.38;;
75785;SDS011;64402;44.708;37.644;2023-03-03T00:06:31;23.63;;;9.23;;
75785;SDS011;64402;44.708;37.644;2023-03-03T00:09:09;22.60;;;9.45;;
75785;SDS011;64402;44.708;37.644;2023-03-03T00:11:35;23.27;;;9.40;;
75785;SDS011;64402;44.708;37.644;2023-03-03T00:14:02;18.13;;;8.52;;
75785;SDS011;64402;44.708;37.644;2023-03-03T00:16:38;20.58;;;9.00;;
75785;SDS011;64402;44.708;37.644;2023-03-03T00:19:17;26.73;;;10.20;;
75785;SDS011;64402;44.708;37.644;2023-03-03T00:21:45;19.52;;;9.48;;
75785;SDS011;64402;44.708;37.644;2023-03-03T00:24:18;28.38;;;9.30;;
75785;SDS011;64402;44.708;37.644;2023-03-03T00:27:09;20.25;;;9.50;;
75785;SDS011;64402;44.708;37.644;2023-03-03T00:29:55;22.20;;;8.52;;
75785;SDS011;64402;44.708;37.644;2023-03-03T00:32:27;23.60;;;9.23;;
75785;SDS011;64402;44.708;37.644;2023-03-03T00:35:26;20.65;;;8.70;;
75785;SDS011;64402;44.708;37.644;2023-03-03T00:38:00;18.83;;;8.23;;
75785;SDS011;64402;44.708;37.644;2023-03-03T00:40:42;17.55;;;8.05;;
75785;SDS011;64402;44.708;37.644;2023-03-03T00:43:14;19.02;;;8.35;;
75785;SDS011;64402;44.708;37.644;2023-03-03T00:45:53;18.70;;;8.40;;
75785;SDS011;64402;44.708;37.644;2023-03-03T00:50:52;22.02;;;9.25;;
75785;SDS011;64402;44.708;37.644;2023-03-03T00:53:21;23.25;;;9.13;;
75785;SDS011;64402;44.708;37.644;2023-03-03T00:55:50;18.58;;;8.68;;
75785;SDS011;64402;44.708;37.644;2023-03-03T00:58:17;21.52;;;8.88;;
75785;SDS011;64402;44.708;37.644;2023-03-03T01:00:52;20.98;;;8.40;;
75785;SDS011;64402;44.708;37.644;2023-03-03T01:03:21;21.75;;;9.32;;
75785;SDS011;64402;44.708;37.644;2023-03-03T01:05:50;22.70;;;9.05;;
75785;SDS011;64402;44.708;37.644;2023-03-03T01:08:17;24.13;;;9.52;;
75785;SDS011;64402;44.708;37.644;2023-03-03T01:10:45;33.83;;;11.25;;
75785;SDS011;64402;44.708;37.644;2023-03-03T01:13:18;24.20;;;9.88;;
75785;SDS011;64402;44.708;37.644;2023-03-03T01:16:00;23.58;;;9.63;;
75785;SDS011;64402;44.708;37.644;2023-03-03T01:18:27;20.92;;;8.90;;
75785;SDS011;64402;44.708;37.644;2023-03-03T01:20:54;29.98;;;12.02;;
75785;SDS011;64402;44.708;37.644;2023-03-03T01:23:20;33.97;;;12.50;;
75785;SDS011;64402;44.708;37.644;2023-03-03T01:25:47;26.45;;;11.02;;
75785;SDS011;64402;44.708;37.644;2023-03-03T01:28:13;23.30;;;9.73;;
75785;SDS011;64402;44.708;37.644;2023-03-03T01:30:40;25.30;;;11.38;;
75785;SDS011;64402;44.708;37.644;2023-03-03T01:33:09;22.77;;;10.23;;
75785;SDS011;64402;44.708;37.644;2023-03-03T01:35:36;23.48;;;10.20;;
75785;SDS011;64402;44.708;37.644;2023-03-03T01:38:02;25.58;;;10.60;;
75785;SDS011;64402;44.708;37.644;2023-03-03T01:40:31;22.95;;;9.52;;
75785;SDS011;64402;44.708;37.644;2023-03-03T01:42:58;28.27;;;10.30;;
75785;SDS011;64402;44.708;37.644;2023-03-03T01:45:26;26.00;;;10.45;;
75785;SDS011;64402;44.708;37.644;2023-03-03T01:52:59;22.95;;;9.68;;
75785;SDS011;64402;44.708;37.644;2023-03-03T01:55:31;24.58;;;9.68;;
75785;SDS011;64402;44.708;37.644;2023-03-03T01:58:10;24.63;;;9.18;;
75785;SDS011;64402;44.708;37.644;2023-03-03T02:00:48;22.52;;;9.13;;
75785;SDS011;64402;44.708;37.644;2023-03-03T02:03:17;22.13;;;9.43;;
75785;SDS011;64402;44.708;37.644;2023-03-03T02:05:47;20.92;;;9.30;;
75785;SDS011;64402;44.708;37.644;2023-03-03T02:08:19;21.30;;;9.40;;
75785;SDS011;64402;44.708;37.644;2023-03-03T02:10:48;20.33;;;9.38;;
75785;SDS011;64402;44.708;37.644;2023-03-03T02:13:16;21.65;;;9.43;;
75785;SDS011;64402;44.708;37.644;2023-03-03T02:15:45;19.50;;;8.88;;
75785;SDS011;64402;44.708;37.644;2023-03-03T02:18:12;21.77;;;9.57;;
75785;SDS011;64402;44.708;37.644;2023-03-03T02:26:09;18.83;;;8.95;;
75785;SDS011;64402;44.708;37.644;2023-03-03T02:28:39;31.88;;;14.63;;
75785;SDS011;64402;44.708;37.644;2023-03-03T02:31:08;30.10;;;13.15;;
75785;SDS011;64402;44.708;37.644;2023-03-03T02:33:44;18.77;;;9.23;;
75785;SDS011;64402;44.708;37.644;2023-03-03T02:36:13;25.83;;;7.95;;
75785;SDS011;64402;44.708;37.644;2023-03-03T02:46:38;18.83;;;7.53;;
75785;SDS011;64402;44.708;37.644;2023-03-03T02:49:07;18.02;;;7.97;;
75785;SDS011;64402;44.708;37.644;2023-03-03T02:51:36;15.70;;;7.25;;
75785;SDS011;64402;44.708;37.644;2023-03-03T02:54:03;16.00;;;7.30;;
75785;SDS011;64402;44.708;37.644;2023-03-03T02:56:29;17.63;;;6.95;;
75785;SDS011;64402;44.708;37.644;2023-03-03T02:58:56;16.42;;;6.25;;
75785;SDS011;64402;44.708;37.644;2023-03-03T03:01:22;18.38;;;6.72;;
75785;SDS011;64402;44.708;37.644;2023-03-03T03:03:51;20.63;;;7.35;;
75785;SDS011;64402;44.708;37.644;2023-03-03T03:06:18;20.98;;;6.95;;
75785;SDS011;64402;44.708;37.644;2023-03-03T03:08:44;20.77;;;7.93;;
75785;SDS011;64402;44.708;37.644;2023-03-03T03:11:11;19.40;;;7.88;;
75785;SDS011;64402;44.708;37.644;2023-03-03T03:13:37;18.98;;;8.38;;
75785;SDS011;64402;44.708;37.644;2023-03-03T03:16:04;20.58;;;7.95;;
75785;SDS011;64402;44.708;37.644;2023-03-03T03:18:31;19.60;;;6.90;;
75785;SDS011;64402;44.708;37.644;2023-03-03T03:21:07;20.98;;;7.63;;
75785;SDS011;64402;44.708;37.644;2023-03-03T03:26:01;15.50;;;7.35;;
75785;SDS011;64402;44.708;37.644;2023-03-03T03:28:28;16.10;;;6.97;;
75785;SDS011;64402;44.708;37.644;2023-03-03T03:30:54;17.13;;;6.93;;
75785;SDS011;64402;44.708;37.644;2023-03-03T03:33:21;17.42;;;7.28;;
75785;SDS011;64402;44.708;37.644;2023-03-03T03:35:53;17.10;;;7.97;;
75785;SDS011;64402;44.708;37.644;2023-03-03T03:38:21;17.73;;;8.05;;
75785;SDS011;64402;44.708;37.644;2023-03-03T03:40:48;16.75;;;7.93;;
75785;SDS011;64402;44.708;37.644;2023-03-03T03:43:14;18.52;;;7.72;;
75785;SDS011;64402;44.708;37.644;2023-03-03T03:45:41;16.60;;;7.55;;
75785;SDS011;64402;44.708;37.644;2023-03-03T03:48:08;24.88;;;9.27;;
75785;SDS011;64402;44.708;37.644;2023-03-03T03:50:35;21.05;;;8.73;;
75785;SDS011;64402;44.708;37.644;2023-03-03T03:53:02;20.80;;;9.15;;
75785;SDS011;64402;44.708;37.644;2023-03-03T03:55:29;54.05;;;18.10;;
75785;SDS011;64402;44.708;37.644;2023-03-03T03:57:56;24.95;;;10.77;;
75785;SDS011;64402;44.708;37.644;2023-03-03T04:00:23;18.45;;;7.30;;
75785;SDS011;64402;44.708;37.644;2023-03-03T04:02:50;17.52;;;5.72;;
75785;SDS011;64402;44.708;37.644;2023-03-03T04:05:17;14.15;;;4.93;;
75785;SDS011;64402;44.708;37.644;2023-03-03T04:07:44;20.10;;;6.10;;
75785;SDS011;64402;44.708;37.644;2023-03-03T04:10:10;14.35;;;6.20;;
75785;SDS011;64402;44.708;37.644;2023-03-03T04:12:36;11.57;;;5.07;;
75785;SDS011;64402;44.708;37.644;2023-03-03T04:15:04;16.88;;;6.80;;
75785;SDS011;64402;44.708;37.644;2023-03-03T04:17:32;15.63;;;5.80;;
75785;SDS011;64402;44.708;37.644;2023-03-03T04:19:58;15.35;;;5.57;;
75785;SDS011;64402;44.708;37.644;2023-03-03T04:22:24;12.77;;;5.70;;
75785;SDS011;64402;44.708;37.644;2023-03-03T04:24:51;14.15;;;6.35;;
75785;SDS011;64402;44.708;37.644;2023-03-03T04:27:17;16.35;;;7.10;;
75785;SDS011;64402;44.708;37.644;2023-03-03T04:29:43;19.15;;;7.43;;
75785;SDS011;64402;44.708;37.644;2023-03-03T04:32:09;21.92;;;9.63;;
75785;SDS011;64402;44.708;37.644;2023-03-03T04:34:36;24.98;;;10.32;;
75785;SDS011;64402;44.708;37.644;2023-03-03T04:37:02;24.13;;;9.38;;
75785;SDS011;64402;44.708;37.644;2023-03-03T04:39:28;18.33;;;7.93;;
75785;SDS011;64402;44.708;37.644;2023-03-03T04:41:54;17.35;;;7.95;;
75785;SDS011;64402;44.708;37.644;2023-03-03T04:44:20;19.05;;;7.70;;
75785;SDS011;64402;44.708;37.644;2023-03-03T04:46:47;17.38;;;6.40;;
75785;SDS011;64402;44.708;37.644;2023-03-03T04:49:13;20.15;;;7.70;;
75785;SDS011;64402;44.708;37.644;2023-03-03T04:51:39;21.10;;;7.80;;
75785;SDS011;64402;44.708;37.644;2023-03-03T04:54:05;22.40;;;8.77;;
75785;SDS011;64402;44.708;37.644;2023-03-03T04:56:31;19.27;;;7.55;;
75785;SDS011;64402;44.708;37.644;2023-03-03T04:58:58;14.27;;;7.07;;
75785;SDS011;64402;44.708;37.644;2023-03-03T05:01:24;22.20;;;7.20;;
75785;SDS011;64402;44.708;37.644;2023-03-03T05:03:50;18.70;;;7.13;;
75785;SDS011;64402;44.708;37.644;2023-03-03T05:06:16;20.67;;;8.05;;
75785;SDS011;64402;44.708;37.644;2023-03-03T05:08:44;14.85;;;7.38;;
75785;SDS011;64402;44.708;37.644;2023-03-03T05:11:10;15.43;;;6.75;;
75785;SDS011;64402;44.708;37.644;2023-03-03T05:13:38;15.73;;;6.38;;
75785;SDS011;64402;44.708;37.644;2023-03-03T05:16:05;21.58;;;6.88;;
75785;SDS011;64402;44.708;37.644;2023-03-03T05:18:31;15.18;;;7.30;;
75785;SDS011;64402;44.708;37.644;2023-03-03T05:20:58;18.83;;;7.88;;
75785;SDS011;64402;44.708;37.644;2023-03-03T05:23:24;18.80;;;7.75;;
75785;SDS011;64402;44.708;37.644;2023-03-03T05:25:51;21.20;;;8.50;;
75785;SDS011;64402;44.708;37.644;2023-03-03T05:28:17;28.25;;;7.57;;
75785;SDS011;64402;44.708;37.644;2023-03-03T05:30:44;18.02;;;7.38;;
75785;SDS011;64402;44.708;37.644;2023-03-03T05:33:15;21.60;;;8.07;;
75785;SDS011;64402;44.708;37.644;2023-03-03T05:35:42;41.08;;;7.50;;
75785;SDS011;64402;44.708;37.644;2023-03-03T05:38:09;16.77;;;4.85;;
75785;SDS011;64402;44.708;37.644;2023-03-03T05:40:36;19.50;;;6.38;;
75785;SDS011;64402;44.708;37.644;2023-03-03T05:43:03;17.63;;;7.30;;
75785;SDS011;64402;44.708;37.644;2023-03-03T05:45:29;16.00;;;7.18;;
75785;SDS011;64402;44.708;37.644;2023-03-03T05:47:57;15.52;;;7.13;;
75785;SDS011;64402;44.708;37.644;2023-03-03T05:50:24;12.65;;;6.70;;
75785;SDS011;64402;44.708;37.644;2023-03-03T05:52:50;14.40;;;6.85;;
75785;SDS011;64402;44.708;37.644;2023-03-03T05:55:18;24.58;;;7.30;;
75785;SDS011;64402;44.708;37.644;2023-03-03T05:57:44;17.02;;;6.47;;
75785;SDS011;64402;44.708;37.644;2023-03-03T06:00:11;21.13;;;6.93;;
75785;SDS011;64402;44.708;37.644;2023-03-03T06:02:38;17.00;;;6.65;;
75785;SDS011;64402;44.708;37.644;2023-03-03T06:05:05;17.75;;;5.80;;
75785;SDS011;64402;44.708;37.644;2023-03-03T06:07:33;14.40;;;7.32;;
75785;SDS011;64402;44.708;37.644;2023-03-03T06:10:00;20.63;;;9.10;;
75785;SDS011;64402;44.708;37.644;2023-03-03T06:12:26;25.33;;;9.02;;
75785;SDS011;64402;44.708;37.644;2023-03-03T06:14:52;19.95;;;7.85;;
75785;SDS011;64402;44.708;37.644;2023-03-03T06:17:18;22.27;;;7.90;;
75785;SDS011;64402;44.708;37.644;2023-03-03T06:19:44;21.52;;;8.25;;
75785;SDS011;64402;44.708;37.644;2023-03-03T06:22:12;18.13;;;7.60;;
75785;SDS011;64402;44.708;37.644;2023-03-03T06:24:38;17.95;;;8.13;;
75785;SDS011;64402;44.708;37.644;2023-03-03T06:27:05;23.38;;;7.93;;
75785;SDS011;64402;44.708;37.644;2023-03-03T06:29:31;18.75;;;7.75;;
75785;SDS011;64402;44.708;37.644;2023-03-03T06:31:57;25.50;;;7.60;;
75785;SDS011;64402;44.708;37.644;2023-03-03T06:34:23;15.23;;;7.72;;
75785;SDS011;64402;44.708;37.644;2023-03-03T06:36:50;20.05;;;8.30;;
75785;SDS011;64402;44.708;37.644;2023-03-03T06:39:17;17.63;;;7.82;;
75785;SDS011;64402;44.708;37.644;2023-03-03T06:41:43;18.95;;;8.05;;
75785;SDS011;64402;44.708;37.644;2023-03-03T06:44:09;16.05;;;7.47;;
75785;SDS011;64402;44.708;37.644;2023-03-03T06:46:36;16.73;;;7.55;;
75785;SDS011;64402;44.708;37.644;2023-03-03T06:49:02;17.83;;;7.18;;
75785;SDS011;64402;44.708;37.644;2023-03-03T06:51:33;14.65;;;6.20;;
75785;SDS011;64402;44.708;37.644;2023-03-03T06:54:02;17.13;;;7.47;;
75785;SDS011;64402;44.708;37.644;2023-03-03T06:56:35;14.95;;;6.40;;
75785;SDS011;64402;44.708;37.644;2023-03-03T06:59:04;13.38;;;6.43;;
75785;SDS011;64402;44.708;37.644;2023-03-03T07:01:36;15.20;;;7.43;;
75785;SDS011;64402;44.708;37.644;2023-03-03T07:04:10;17.83;;;7.03;;
75785;SDS011;64402;44.708;37.644;2023-03-03T07:06:47;19.30;;;6.80;;
75785;SDS011;64402;44.708;37.644;2023-03-03T07:09:17;19.38;;;7.72;;
75785;SDS011;64402;44.708;37.644;2023-03-03T07:11:53;15.80;;;6.68;;
75785;SDS011;64402;44.708;37.644;2023-03-03T07:14:25;21.05;;;7.28;;
75785;SDS011;64402;44.708;37.644;2023-03-03T07:16:55;19.48;;;7.18;;
75785;SDS011;64402;44.708;37.644;2023-03-03T07:19:41;13.15;;;6.75;;
75785;SDS011;64402;44.708;37.644;2023-03-03T07:24:39;12.98;;;6.55;;
75785;SDS011;64402;44.708;37.644;2023-03-03T07:27:10;14.30;;;5.80;;
75785;SDS011;64402;44.708;37.644;2023-03-03T07:29:37;13.20;;;6.55;;
75785;SDS011;64402;44.708;37.644;2023-03-03T07:32:41;15.98;;;8.32;;
75785;SDS011;64402;44.708;37.644;2023-03-03T07:38:08;11.75;;;6.10;;
75785;SDS011;64402;44.708;37.644;2023-03-03T07:40:54;13.20;;;6.13;;
75785;SDS011;64402;44.708;37.644;2023-03-03T07:43:35;10.48;;;5.35;;
75785;SDS011;64402;44.708;37.644;2023-03-03T07:48:40;10.45;;;5.15;;
75785;SDS011;64402;44.708;37.644;2023-03-03T07:51:24;11.05;;;5.20;;
75785;SDS011;64402;44.708;37.644;2023-03-03T07:53:59;9.88;;;5.38;;
75785;SDS011;64402;44.708;37.644;2023-03-03T07:56:46;16.27;;;5.13;;
75785;SDS011;64402;44.708;37.644;2023-03-03T07:59:24;10.27;;;5.53;;
75785;SDS011;64402;44.708;37.644;2023-03-03T08:01:54;12.13;;;5.10;;
75785;SDS011;64402;44.708;37.644;2023-03-03T08:04:34;9.75;;;5.32;;
75785;SDS011;64402;44.708;37.644;2023-03-03T08:07:10;14.30;;;6.53;;
75785;SDS011;64402;44.708;37.644;2023-03-03T08:14:43;12.68;;;5.50;;
75785;SDS011;64402;44.708;37.644;2023-03-03T08:17:16;12.30;;;5.78;;
75785;SDS011;64402;44.708;37.644;2023-03-03T08:19:46;10.15;;;5.47;;
75785;SDS011;64402;44.708;37.644;2023-03-03T08:22:30;12.18;;;5.50;;
75785;SDS011;64402;44.708;37.644;2023-03-03T08:25:02;11.20;;;5.72;;
75785;SDS011;64402;44.708;37.644;2023-03-03T08:27:28;11.63;;;6.25;;
75785;SDS011;64402;44.708;37.644;2023-03-03T08:29:55;16.77;;;8.57;;
75785;SDS011;64402;44.708;37.644;2023-03-03T08:32:21;18.13;;;6.95;;
75785;SDS011;64402;44.708;37.644;2023-03-03T08:34:47;13.98;;;6.15;;
75785;SDS011;64402;44.708;37.644;2023-03-03T08:37:13;11.80;;;5.30;;
75785;SDS011;64402;44.708;37.644;2023-03-03T08:39:39;12.45;;;5.68;;
75785;SDS011;64402;44.708;37.644;2023-03-03T08:42:05;14.32;;;6.07;;
75785;SDS011;64402;44.708;37.644;2023-03-03T08:44:32;9.63;;;5.22;;
75785;SDS011;64402;44.708;37.644;2023-03-03T08:46:58;10.80;;;5.70;;
75785;SDS011;64402;44.708;37.644;2023-03-03T08:49:24;9.55;;;4.93;;
75785;SDS011;64402;44.708;37.644;2023-03-03T08:51:50;9.77;;;4.95;;
75785;SDS011;64402;44.708;37.644;2023-03-03T08:54:17;11.20;;;5.60;;
75785;SDS011;64402;44.708;37.644;2023-03-03T08:56:43;14.48;;;6.10;;
75785;SDS011;64402;44.708;37.644;2023-03-03T08:59:09;13.55;;;5.63;;
75785;SDS011;64402;44.708;37.644;2023-03-03T09:01:36;9.98;;;5.22;;
75785;SDS011;64402;44.708;37.644;2023-03-03T09:04:02;13.45;;;5.93;;
75785;SDS011;64402;44.708;37.644;2023-03-03T09:06:29;17.00;;;8.57;;
75785;SDS011;64402;44.708;37.644;2023-03-03T09:08:55;16.48;;;6.22;;
75785;SDS011;64402;44.708;37.644;2023-03-03T09:11:25;12.93;;;6.28;;
75785;SDS011;64402;44.708;37.644;2023-03-03T09:14:27;15.63;;;6.63;;
75785;SDS011;64402;44.708;37.644;2023-03-03T09:19:25;12.15;;;6.45;;
75785;SDS011;64402;44.708;37.644;2023-03-03T09:22:39;12.63;;;5.78;;
75785;SDS011;64402;44.708;37.644;2023-03-03T09:24:49;11.27;;;5.35;;
75785;SDS011;64402;44.708;37.644;2023-03-03T09:27:26;12.88;;;5.95;;
75785;SDS011;64402;44.708;37.644;2023-03-03T09:29:55;12.57;;;5.85;;
75785;SDS011;64402;44.708;37.644;2023-03-03T09:32:30;9.57;;;3.95;;
75785;SDS011;64402;44.708;37.644;2023-03-03T09:35:24;9.93;;;5.07;;
75785;SDS011;64402;44.708;37.644;2023-03-03T09:37:55;11.55;;;5.72;;
75785;SDS011;64402;44.708;37.644;2023-03-03T09:49:18;12.93;;;4.70;;
75785;SDS011;64402;44.708;37.644;2023-03-03T09:51:59;11.52;;;4.93;;
75785;SDS011;64402;44.708;37.644;2023-03-03T10:10:59;10.27;;;4.68;;
75785;SDS011;64402;44.708;37.644;2023-03-03T10:13:43;7.88;;;3.92;;
75785;SDS011;64402;44.708;37.644;2023-03-03T10:19:35;13.77;;;4.07;;
75785;SDS011;64402;44.708;37.644;2023-03-03T10:25:02;9.32;;;4.55;;
75785;SDS011;64402;44.708;37.644;2023-03-03T10:50:21;8.55;;;3.97;;
75785;SDS011;64402;44.708;37.644;2023-03-03T10:56:07;7.97;;;4.05;;
75785;SDS011;64402;44.708;37.644;2023-03-03T10:58:56;6.97;;;3.58;;
75785;SDS011;64402;44.708;37.644;2023-03-03T11:12:54;8.25;;;4.20;;
75785;SDS011;64402;44.708;37.644;2023-03-03T11:18:32;9.43;;;4.30;;
75785;SDS011;64402;44.708;37.644;2023-03-03T11:37:13;9.00;;;4.25;;
75785;SDS011;64402;44.708;37.644;2023-03-03T11:40:05;7.63;;;3.95;;
75785;SDS011;64402;44.708;37.644;2023-03-03T11:45:42;10.30;;;4.82;;
75785;SDS011;64402;44.708;37.644;2023-03-03T11:48:37;11.07;;;4.03;;
75785;SDS011;64402;44.708;37.644;2023-03-03T11:51:19;8.90;;;4.50;;
75785;SDS011;64402;44.708;37.644;2023-03-03T11:54:14;8.98;;;4.03;;
75785;SDS011;64402;44.708;37.644;2023-03-03T11:56:46;8.70;;;4.43;;
75785;SDS011;64402;44.708;37.644;2023-03-03T12:02:27;8.32;;;3.53;;
75785;SDS011;64402;44.708;37.644;2023-03-03T12:04:56;9.80;;;2.92;;
75785;SDS011;64402;44.708;37.644;2023-03-03T12:12:40;9.15;;;3.95;;
75785;SDS011;64402;44.708;37.644;2023-03-03T12:20:44;7.68;;;3.50;;
75785;SDS011;64402;44.708;37.644;2023-03-03T12:26:10;9.57;;;4.13;;
75785;SDS011;64402;44.708;37.644;2023-03-03T12:28:45;12.07;;;6.80;;
75785;SDS011;64402;44.708;37.644;2023-03-03T12:33:55;11.10;;;6.55;;
75785;SDS011;64402;44.708;37.644;2023-03-03T12:55:43;11.23;;;4.57;;
75785;SDS011;64402;44.708;37.644;2023-03-03T13:01:09;11.55;;;4.80;;
75785;SDS011;64402;44.708;37.644;2023-03-03T13:03:50;15.10;;;6.50;;
75785;SDS011;64402;44.708;37.644;2023-03-03T13:06:45;12.45;;;5.60;;
75785;SDS011;64402;44.708;37.644;2023-03-03T13:09:37;8.80;;;4.45;;
75785;SDS011;64402;44.708;37.644;2023-03-03T13:12:35;12.98;;;6.40;;
75785;SDS011;64402;44.708;37.644;2023-03-03T13:15:13;10.15;;;5.47;;
75785;SDS011;64402;44.708;37.644;2023-03-03T13:20:48;9.73;;;5.20;;
75785;SDS011;64402;44.708;37.644;2023-03-03T13:31:22;11.73;;;6.15;;
75785;SDS011;64402;44.708;37.644;2023-03-03T13:33:54;13.50;;;5.43;;
75785;SDS011;64402;44.708;37.644;2023-03-03T13:36:24;12.60;;;6.22;;
75785;SDS011;64402;44.708;37.644;2023-03-03T13:44:10;12.07;;;5.18;;
75785;SDS011;64402;44.708;37.644;2023-03-03T13:52:03;11.85;;;5.28;;
75785;SDS011;64402;44.708;37.644;2023-03-03T14:05:45;10.02;;;5.03;;
75785;SDS011;64402;44.708;37.644;2023-03-03T14:16:37;15.43;;;7.20;;
75785;SDS011;64402;44.708;37.644;2023-03-03T14:19:05;10.68;;;5.32;;
75785;SDS011;64402;44.708;37.644;2023-03-03T14:22:40;11.52;;;5.40;;
75785;SDS011;64402;44.708;37.644;2023-03-03T14:25:24;10.60;;;4.38;;
75785;SDS011;64402;44.708;37.644;2023-03-03T14:30:30;16.17;;;7.93;;
75785;SDS011;64402;44.708;37.644;2023-03-03T14:35:35;12.57;;;5.13;;
75785;SDS011;64402;44.708;37.644;2023-03-03T14:38:42;12.15;;;6.07;;
75785;SDS011;64402;44.708;37.644;2023-03-03T14:43:36;17.95;;;9.35;;
75785;SDS011;64402;44.708;37.644;2023-03-03T14:48:53;12.38;;;6.53;;
75785;SDS011;64402;44.708;37.644;2023-03-03T14:53:53;21.70;;;11.60;;
75785;SDS011;64402;44.708;37.644;2023-03-03T14:56:22;36.10;;;21.00;;
75785;SDS011;64402;44.708;37.644;2023-03-03T14:58:52;30.73;;;14.48;;
75785;SDS011;64402;44.708;37.644;2023-03-03T15:01:33;15.00;;;8.30;;
75785;SDS011;64402;44.708;37.644;2023-03-03T15:04:02;19.02;;;9.13;;
75785;SDS011;64402;44.708;37.644;2023-03-03T15:06:50;14.82;;;6.32;;
75785;SDS011;64402;44.708;37.644;2023-03-03T15:12:01;85.88;;;43.85;;
75785;SDS011;64402;44.708;37.644;2023-03-03T15:14:50;48.67;;;25.10;;
75785;SDS011;64402;44.708;37.644;2023-03-03T15:25:18;25.98;;;8.52;;
75785;SDS011;64402;44.708;37.644;2023-03-03T15:28:34;23.13;;;8.65;;
75785;SDS011;64402;44.708;37.644;2023-03-03T15:30:50;29.35;;;10.13;;
75785;SDS011;64402;44.708;37.644;2023-03-03T15:36:22;69.18;;;33.65;;
75785;SDS011;64402;44.708;37.644;2023-03-03T15:41:45;19.20;;;8.25;;
75785;SDS011;64402;44.708;37.644;2023-03-03T15:44:29;19.50;;;6.90;;
75785;SDS011;64402;44.708;37.644;2023-03-03T16:03:32;66.50;;;24.83;;
75785;SDS011;64402;44.708;37.644;2023-03-03T16:06:08;36.33;;;15.40;;
75785;SDS011;64402;44.708;37.644;2023-03-03T16:08:48;33.88;;;13.27;;
75785;SDS011;64402;44.708;37.644;2023-03-03T16:11:53;22.05;;;7.57;;
75785;SDS011;64402;44.708;37.644;2023-03-03T16:14:49;28.63;;;11.13;;
75785;SDS011;64402;44.708;37.644;2023-03-03T16:31:22;41.13;;;13.48;;
75785;SDS011;64402;44.708;37.644;2023-03-03T16:37:00;85.85;;;34.83;;
75785;SDS011;64402;44.708;37.644;2023-03-03T16:39:38;59.65;;;22.35;;
75785;SDS011;64402;44.708;37.644;2023-03-03T16:58:39;54.25;;;21.60;;
75785;SDS011;64402;44.708;37.644;2023-03-03T17:01:28;41.45;;;19.75;;
75785;SDS011;64402;44.708;37.644;2023-03-03T17:07:25;31.35;;;12.95;;
75785;SDS011;64402;44.708;37.644;2023-03-03T17:10:03;23.15;;;10.68;;
75785;SDS011;64402;44.708;37.644;2023-03-03T17:21:34;33.30;;;15.93;;
75785;SDS011;64402;44.708;37.644;2023-03-03T17:24:31;49.55;;;16.58;;
75785;SDS011;64402;44.708;37.644;2023-03-03T17:27:06;57.67;;;18.38;;
75785;SDS011;64402;44.708;37.644;2023-03-03T17:32:31;52.78;;;17.55;;
75785;SDS011;64402;44.708;37.644;2023-03-03T17:35:07;59.10;;;16.48;;
75785;SDS011;64402;44.708;37.644;2023-03-03T17:37:56;47.80;;;21.95;;
75785;SDS011;64402;44.708;37.644;2023-03-03T17:46:38;23.83;;;10.70;;
75785;SDS011;64402;44.708;37.644;2023-03-03T17:52:16;29.13;;;13.15;;
75785;SDS011;64402;44.708;37.644;2023-03-03T17:57:49;26.77;;;11.95;;
75785;SDS011;64402;44.708;37.644;2023-03-03T18:05:27;24.02;;;11.25;;
75785;SDS011;64402;44.708;37.644;2023-03-03T18:11:06;23.00;;;10.63;;
75785;SDS011;64402;44.708;37.644;2023-03-03T18:16:39;37.42;;;17.27;;
75785;SDS011;64402;44.708;37.644;2023-03-03T18:19:19;21.98;;;10.07;;
75785;SDS011;64402;44.708;37.644;2023-03-03T18:27:31;27.45;;;10.90;;
75785;SDS011;64402;44.708;37.644;2023-03-03T18:57:23;36.95;;;12.80;;
75785;SDS011;64402;44.708;37.644;2023-03-03T18:59:38;24.33;;;11.25;;
75785;SDS011;64402;44.708;37.644;2023-03-03T19:02:36;27.92;;;13.15;;
75785;SDS011;64402;44.708;37.644;2023-03-03T19:18:13;44.58;;;19.33;;
75785;SDS011;64402;44.708;37.644;2023-03-03T19:20:47;35.83;;;17.98;;
75785;SDS011;64402;44.708;37.644;2023-03-03T19:26:57;48.85;;;15.45;;
75785;SDS011;64402;44.708;37.644;2023-03-03T19:34:50;30.02;;;12.48;;
75785;SDS011;64402;44.708;37.644;2023-03-03T19:37:38;35.42;;;14.45;;
75785;SDS011;64402;44.708;37.644;2023-03-03T19:40:31;26.58;;;13.10;;
75785;SDS011;64402;44.708;37.644;2023-03-03T20:10:06;14.90;;;5.60;;
75785;SDS011;64402;44.708;37.644;2023-03-03T20:15:52;11.20;;;5.18;;
75785;SDS011;64402;44.708;37.644;2023-03-03T20:23:54;10.20;;;4.80;;
75785;SDS011;64402;44.708;37.644;2023-03-03T20:37:32;11.25;;;4.45;;
75785;SDS011;64402;44.708;37.644;2023-03-03T20:42:32;9.55;;;4.55;;
75785;SDS011;64402;44.708;37.644;2023-03-03T20:45:36;10.63;;;4.15;;
75785;SDS011;64402;44.708;37.644;2023-03-03T20:48:31;8.80;;;4.13;;
75785;SDS011;64402;44.708;37.644;2023-03-03T20:56:30;8.52;;;3.60;;
75785;SDS011;64402;44.708;37.644;2023-03-03T21:04:31;8.38;;;3.33;;
75785;SDS011;64402;44.708;37.644;2023-03-03T21:07:01;9.77;;;3.40;;
75785;SDS011;64402;44.708;37.644;2023-03-03T21:09:29;10.93;;;3.45;;
75785;SDS011;64402;44.708;37.644;2023-03-03T21:12:09;8.98;;;3.00;;
75785;SDS011;64402;44.708;37.644;2023-03-03T21:15:03;8.05;;;2.95;;
75785;SDS011;64402;44.708;37.644;2023-03-03T21:17:35;7.03;;;2.72;;
75785;SDS011;64402;44.708;37.644;2023-03-03T21:22:45;8.40;;;3.70;;
75785;SDS011;64402;44.708;37.644;2023-03-03T21:25:11;8.15;;;3.25;;
75785;SDS011;64402;44.708;37.644;2023-03-03T21:28:27;8.60;;;3.20;;
75785;SDS011;64402;44.708;37.644;2023-03-03T21:30:58;12.60;;;3.95;;
75785;SDS011;64402;44.708;37.644;2023-03-03T21:39:18;10.63;;;3.50;;
75785;SDS011;64402;44.708;37.644;2023-03-03T21:44:33;11.15;;;3.97;;
75785;SDS011;64402;44.708;37.644;2023-03-03T21:47:00;9.75;;;4.53;;
75785;SDS011;64402;44.708;37.644;2023-03-03T21:49:26;10.98;;;4.47;;
75785;SDS011;64402;44.708;37.644;2023-03-03T21:51:53;10.18;;;4.32;;
75785;SDS011;64402;44.708;37.644;2023-03-03T21:54:20;9.80;;;4.15;;
75785;SDS011;64402;44.708;37.644;2023-03-03T21:56:46;10.18;;;3.72;;
75785;SDS011;64402;44.708;37.644;2023-03-03T21:59:14;11.07;;;4.07;;
75785;SDS011;64402;44.708;37.644;2023-03-03T22:01:41;11.88;;;4.18;;
75785;SDS011;64402;44.708;37.644;2023-03-03T22:04:08;11.55;;;4.20;;
75785;SDS011;64402;44.708;37.644;2023-03-03T22:06:34;9.82;;;3.45;;
75785;SDS011;64402;44.708;37.644;2023-03-03T22:09:04;8.63;;;3.90;;
75785;SDS011;64402;44.708;37.644;2023-03-03T22:11:31;10.50;;;3.78;;
75785;SDS011;64402;44.708;37.644;2023-03-03T22:13:58;11.48;;;5.30;;
75785;SDS011;64402;44.708;37.644;2023-03-03T22:16:24;9.25;;;3.63;;
75785;SDS011;64402;44.708;37.644;2023-03-03T22:18:50;7.38;;;3.42;;
75785;SDS011;64402;44.708;37.644;2023-03-03T22:21:17;9.00;;;3.08;;
75785;SDS011;64402;44.708;37.644;2023-03-03T22:23:43;7.88;;;3.00;;
75785;SDS011;64402;44.708;37.644;2023-03-03T22:26:10;9.48;;;3.55;;
75785;SDS011;64402;44.708;37.644;2023-03-03T22:28:36;8.10;;;3.30;;